createdAt,value
2022-12-25T00:02:29.577Z,101273.97
2022-12-25T00:05:15.410Z,101282.56
2022-12-25T00:08:00.834Z,101282.50
2022-12-25T00:10:46.086Z,101288.41
2022-12-25T00:13:31.692Z,101292.94
2022-12-25T00:16:21.112Z,101280.09
2022-12-25T00:19:06.432Z,101292.44
2022-12-25T00:21:52.059Z,101291.69
2022-12-25T00:24:37.502Z,101285.66
2022-12-25T00:27:22.852Z,101284.47
2022-12-25T00:30:09.186Z,101304.09
2022-12-25T00:32:54.559Z,101313.44
2022-12-25T00:35:39.784Z,101310.94
2022-12-25T00:38:26.237Z,101320.69
2022-12-25T00:41:16.914Z,101333.72
2022-12-25T00:44:02.372Z,101333.84
2022-12-25T00:46:47.812Z,101333.13
2022-12-25T00:49:33.419Z,101328.03
2022-12-25T00:52:18.997Z,101321.97
2022-12-25T00:55:04.892Z,101334.78
2022-12-25T00:57:50.425Z,101329.53
2022-12-25T01:00:35.766Z,101326.91
2022-12-25T01:03:21.180Z,101314.94
2022-12-25T01:06:08.477Z,101328.75
2022-12-25T01:09:12.581Z,101317.56
2022-12-25T01:11:57.849Z,101327.09
2022-12-25T01:14:43.317Z,101327.19
2022-12-25T01:17:29.070Z,101332.25
2022-12-25T01:20:16.321Z,101333.25
2022-12-25T01:23:01.747Z,101338.47
2022-12-25T01:25:47.104Z,101335.31
2022-12-25T01:28:32.708Z,101338.75
2022-12-25T01:31:21.636Z,101342.03
2022-12-25T01:34:07.062Z,101336.84
2022-12-25T01:36:52.520Z,101345.59
2022-12-25T01:39:37.855Z,101339.53
2022-12-25T01:42:23.958Z,101344.75
2022-12-25T01:45:43.989Z,101360.13
2022-12-25T01:48:34.028Z,101351.56
2022-12-25T01:51:28.752Z,101367.97
2022-12-25T01:54:20.144Z,101374.91
2022-12-25T01:57:09.241Z,101374.00
2022-12-25T01:59:56.113Z,101378.25
2022-12-25T02:02:42.103Z,101382.78
2022-12-25T02:05:30.841Z,101370.78
2022-12-25T02:08:18.291Z,101387.97
2022-12-25T02:11:03.518Z,101386.19
2022-12-25T02:13:49.160Z,101374.13
2022-12-25T02:16:56.821Z,101383.75
2022-12-25T02:20:11.563Z,101381.84
2022-12-25T02:23:18.384Z,101382.72
2022-12-25T02:26:18.287Z,101382.91
2022-12-25T02:29:51.070Z,101375.19
2022-12-25T02:33:16.609Z,101381.28
2022-12-25T02:36:07.264Z,101377.81
2022-12-25T02:39:17.844Z,101375.38
2022-12-25T02:42:08.493Z,101392.63
2022-12-25T02:45:12.746Z,101382.13
2022-12-25T02:48:17.304Z,101372.81
2022-12-25T02:51:26.295Z,101395.19
2022-12-25T02:54:36.110Z,101404.50
2022-12-25T02:57:45.729Z,101376.88
2022-12-25T03:00:53.897Z,101394.19
2022-12-25T03:04:00.425Z,101401.94
2022-12-25T03:07:03.865Z,101403.63
2022-12-25T03:10:12.762Z,101389.00
2022-12-25T03:13:04.715Z,101388.94
2022-12-25T03:16:09.307Z,101381.28
2022-12-25T03:18:57.255Z,101393.28
2022-12-25T03:22:01.275Z,101400.16
2022-12-25T03:25:05.889Z,101387.25
2022-12-25T03:27:54.199Z,101391.34
2022-12-25T03:31:11.489Z,101370.72
2022-12-25T03:34:43.042Z,101398.44
2022-12-25T03:38:04.282Z,101383.88
2022-12-25T03:41:18.264Z,101386.38
2022-12-25T03:44:53.662Z,101383.88
2022-12-25T03:48:04.417Z,101379.66
2022-12-25T03:51:15.338Z,101379.72
2022-12-25T03:54:24.061Z,101357.38
2022-12-25T03:57:28.883Z,101376.25
2022-12-25T04:00:38.072Z,101383.31
2022-12-25T04:03:41.785Z,101370.41
2022-12-25T04:06:45.923Z,101360.97
2022-12-25T04:09:49.912Z,101377.31
2022-12-25T04:12:53.930Z,101368.75
2022-12-25T04:15:57.733Z,101360.03
2022-12-25T04:19:02.071Z,101339.25
2022-12-25T04:22:06.149Z,101367.75
2022-12-25T04:25:10.283Z,101351.25
2022-12-25T04:28:19.546Z,101373.59
2022-12-25T04:31:24.146Z,101363.41
2022-12-25T04:34:27.951Z,101355.69
2022-12-25T04:37:13.707Z,101351.22
2022-12-25T04:39:59.181Z,101348.53
2022-12-25T04:42:44.622Z,101350.88
2022-12-25T04:45:30.272Z,101341.25
2022-12-25T04:48:15.590Z,101320.72
2022-12-25T04:51:30.590Z,101351.72
2022-12-25T04:54:16.042Z,101345.81
2022-12-25T04:57:01.412Z,101359.75
2022-12-25T04:59:46.815Z,101352.16
2022-12-25T05:02:32.361Z,101333.16
2022-12-25T05:05:17.780Z,101347.06
2022-12-25T05:08:05.681Z,101337.59
2022-12-25T05:10:51.423Z,101348.13
2022-12-25T05:13:36.795Z,101329.84
2022-12-25T05:16:22.321Z,101323.88
2022-12-25T05:19:07.583Z,101328.06
2022-12-25T05:21:53.929Z,101329.81
2022-12-25T05:24:39.592Z,101316.91
2022-12-25T05:27:24.879Z,101303.06
2022-12-25T05:30:10.331Z,101294.56
2022-12-25T05:32:55.687Z,101291.84
2022-12-25T05:35:41.109Z,101297.75
2022-12-25T05:38:26.530Z,101294.00
2022-12-25T05:41:12.024Z,101290.63
2022-12-25T05:43:57.582Z,101293.28
2022-12-25T05:46:43.203Z,101296.75
2022-12-25T05:49:28.521Z,101293.41
2022-12-25T05:52:13.934Z,101290.75
2022-12-25T05:54:59.913Z,101277.66
2022-12-25T05:57:45.175Z,101284.47
2022-12-25T06:00:31.322Z,101306.84
2022-12-25T06:03:16.941Z,101289.44
2022-12-25T06:06:03.371Z,101297.28
2022-12-25T06:08:48.626Z,101307.97
2022-12-25T06:11:33.929Z,101318.25
2022-12-25T06:14:19.629Z,101306.84
2022-12-25T06:17:05.343Z,101299.81
2022-12-25T06:19:50.743Z,101290.91
2022-12-25T06:22:36.108Z,101307.34
2022-12-25T06:25:21.693Z,101320.09
2022-12-25T06:28:07.495Z,101318.31
2022-12-25T06:30:53.065Z,101295.78
2022-12-25T06:33:38.845Z,101328.31
2022-12-25T06:36:27.572Z,101326.53
2022-12-25T06:39:12.778Z,101311.16
2022-12-25T06:41:58.392Z,101328.19
2022-12-25T06:44:44.428Z,101315.31
2022-12-25T06:47:30.133Z,101317.78
2022-12-25T06:50:15.930Z,101316.00
2022-12-25T06:53:01.266Z,101321.03
2022-12-25T06:55:46.734Z,101319.94
2022-12-25T06:58:32.331Z,101307.06
2022-12-25T07:01:27.483Z,101314.84
2022-12-25T07:04:38.608Z,101291.47
2022-12-25T07:07:23.987Z,101302.59
2022-12-25T07:10:10.077Z,101297.25
2022-12-25T07:12:55.401Z,101292.16
2022-12-25T07:15:40.941Z,101301.66
2022-12-25T07:18:26.926Z,101291.97
2022-12-25T07:21:15.457Z,101291.72
2022-12-25T07:24:01.448Z,101289.38
2022-12-25T07:26:47.440Z,101272.09
2022-12-25T07:29:32.989Z,101289.41
2022-12-25T07:32:18.684Z,101295.53
2022-12-25T07:35:04.753Z,101294.28
2022-12-25T07:37:49.952Z,101284.00
2022-12-25T07:40:35.380Z,101299.56
2022-12-25T07:43:20.852Z,101303.94
2022-12-25T07:46:06.282Z,101302.94
2022-12-25T07:48:51.921Z,101309.78
2022-12-25T07:51:37.635Z,101313.94
2022-12-25T07:54:23.070Z,101308.50
2022-12-25T07:57:08.625Z,101297.25
2022-12-25T07:59:54.097Z,101299.81
2022-12-25T08:02:40.215Z,101279.06
2022-12-25T08:05:26.126Z,101291.13
2022-12-25T08:08:11.698Z,101291.88
2022-12-25T08:10:57.153Z,101295.19
2022-12-25T08:13:42.371Z,101278.66
2022-12-25T08:16:28.110Z,101295.72
2022-12-25T08:19:14.818Z,101289.38
2022-12-25T08:22:00.301Z,101287.41
2022-12-25T08:24:45.826Z,101276.59
2022-12-25T08:27:31.300Z,101283.16
2022-12-25T08:30:17.021Z,101255.25
2022-12-25T08:33:02.557Z,101246.53
2022-12-25T08:35:48.257Z,101270.88
2022-12-25T08:38:34.138Z,101267.13
2022-12-25T08:41:19.468Z,101275.91
2022-12-25T08:44:06.243Z,101276.81
2022-12-25T08:46:51.808Z,101284.84
2022-12-25T08:49:37.575Z,101287.56
2022-12-25T08:52:23.465Z,101287.91
2022-12-25T08:55:08.975Z,101264.69
2022-12-25T08:57:55.339Z,101268.91
2022-12-25T09:00:41.212Z,101283.97
2022-12-25T09:03:27.554Z,101283.94
2022-12-25T09:06:15.647Z,101280.94
2022-12-25T09:09:00.800Z,101278.22
2022-12-25T09:11:46.085Z,101283.34
2022-12-25T09:14:32.014Z,101278.59
2022-12-25T09:17:17.239Z,101284.97
2022-12-25T09:20:03.131Z,101299.25
2022-12-25T09:22:48.511Z,101284.25
2022-12-25T09:25:34.003Z,101289.63
2022-12-25T09:28:19.612Z,101283.50
2022-12-25T09:31:05.282Z,101291.44
2022-12-25T09:33:50.993Z,101286.16
2022-12-25T09:36:37.009Z,101294.50
2022-12-25T09:39:23.237Z,101286.66
2022-12-25T09:42:17.395Z,101273.66
2022-12-25T09:45:06.246Z,101253.56
2022-12-25T09:47:55.123Z,101261.38
2022-12-25T09:50:52.916Z,101257.50
2022-12-25T09:53:44.135Z,101265.91
2022-12-25T09:56:29.623Z,101268.44
2022-12-25T09:59:25.898Z,101284.41
2022-12-25T10:02:29.769Z,101295.84
2022-12-25T10:05:29.759Z,101302.91
2022-12-25T10:08:51.240Z,101301.81
2022-12-25T10:12:00.000Z,101287.47
2022-12-25T10:15:05.606Z,101282.50
2022-12-25T10:17:56.830Z,101277.53
2022-12-25T10:20:55.009Z,101272.03
2022-12-25T10:23:41.896Z,101270.06
2022-12-25T10:26:31.419Z,101265.59
2022-12-25T10:29:21.557Z,101244.78
2022-12-25T10:32:10.115Z,101244.78
2022-12-25T10:34:55.697Z,101229.19
2022-12-25T10:37:43.164Z,101227.38
2022-12-25T10:40:51.595Z,101226.16
2022-12-25T10:43:43.069Z,101212.00
2022-12-25T10:46:29.752Z,101191.31
2022-12-25T10:49:17.196Z,101184.41
2022-12-25T10:52:03.847Z,101201.31
2022-12-25T10:54:49.696Z,101190.19
2022-12-25T10:57:45.503Z,101184.22
2022-12-25T11:00:32.556Z,101202.16
2022-12-25T11:03:25.379Z,101187.28
2022-12-25T11:06:26.100Z,101192.41
2022-12-25T11:09:16.513Z,101182.88
2022-12-25T11:12:02.147Z,101171.56
2022-12-25T11:14:58.835Z,101173.28
2022-12-25T11:17:49.515Z,101140.19
2022-12-25T11:20:36.617Z,101150.28
2022-12-25T11:23:24.194Z,101134.84
2022-12-25T11:26:11.614Z,101140.88
2022-12-25T11:28:58.055Z,101147.03
2022-12-25T11:31:43.737Z,101153.34
2022-12-25T11:34:40.905Z,101146.84
2022-12-25T11:37:40.484Z,101163.78
2022-12-25T11:40:42.494Z,101167.63
2022-12-25T11:43:36.442Z,101164.00
2022-12-25T11:46:30.547Z,101157.09
2022-12-25T11:49:20.947Z,101134.84
2022-12-25T11:52:09.867Z,101152.91
2022-12-25T11:55:01.638Z,101156.31
2022-12-25T11:57:55.042Z,101139.00
2022-12-25T12:00:41.701Z,101127.91
2022-12-25T12:03:32.539Z,101153.78
2022-12-25T12:06:28.806Z,101151.59
2022-12-25T12:09:50.187Z,101141.00
2022-12-25T12:13:31.022Z,101148.16
2022-12-25T12:16:16.839Z,101138.78
2022-12-25T12:19:23.796Z,101144.25
2022-12-25T12:22:24.316Z,101134.72
2022-12-25T12:25:16.738Z,101130.69
2022-12-25T12:28:05.700Z,101114.16
2022-12-25T12:31:00.691Z,101126.91
2022-12-25T12:33:58.441Z,101119.13
2022-12-25T12:36:44.141Z,101082.66
2022-12-25T12:39:40.390Z,101078.91
2022-12-25T12:42:31.429Z,101094.53
2022-12-25T12:45:20.488Z,101104.03
2022-12-25T12:48:16.683Z,101100.97
2022-12-25T12:51:07.804Z,101111.53
2022-12-25T12:54:21.446Z,101083.22
2022-12-25T12:57:23.054Z,101084.06
2022-12-25T13:00:19.344Z,101068.75
2022-12-25T13:03:40.764Z,101059.34
2022-12-25T13:06:38.095Z,101059.22
2022-12-25T13:09:46.518Z,101051.28
2022-12-25T13:12:32.348Z,101044.59
2022-12-25T13:15:18.494Z,101019.63
2022-12-25T13:18:07.520Z,101018.94
2022-12-25T13:20:55.739Z,101017.97
2022-12-25T13:23:41.557Z,101022.44
2022-12-25T13:26:28.288Z,101013.88
2022-12-25T13:29:42.812Z,101015.41
2022-12-25T13:32:30.490Z,101016.47
2022-12-25T13:35:17.486Z,101000.91
2022-12-25T13:38:03.144Z,101008.72
2022-12-25T13:41:12.682Z,101005.22
2022-12-25T13:43:58.824Z,101010.34
2022-12-25T13:46:44.628Z,101000.34
2022-12-25T13:49:30.875Z,100985.47
2022-12-25T13:52:21.113Z,101000.81
2022-12-25T13:55:15.908Z,100982.19
2022-12-25T13:58:04.620Z,100985.03
2022-12-25T14:00:53.084Z,100986.03
2022-12-25T14:03:45.319Z,100970.75
2022-12-25T14:06:31.267Z,100988.38
2022-12-25T14:09:18.104Z,100986.22
2022-12-25T14:12:03.948Z,100978.81
2022-12-25T14:14:51.877Z,100972.31
2022-12-25T14:17:37.625Z,100980.75
2022-12-25T14:20:26.851Z,100960.16
2022-12-25T14:23:16.105Z,100961.16
2022-12-25T14:26:01.944Z,100963.22
2022-12-25T14:29:01.203Z,100961.47
2022-12-25T14:31:47.233Z,100961.75
2022-12-25T14:34:34.200Z,100973.72
2022-12-25T14:37:24.276Z,100978.63
2022-12-25T14:40:19.393Z,100966.31
2022-12-25T14:43:19.873Z,100963.16
2022-12-25T14:46:08.275Z,100962.16
2022-12-25T14:49:07.260Z,100966.56
2022-12-25T14:51:52.545Z,100970.38
2022-12-25T14:54:38.125Z,100952.13
2022-12-25T14:57:28.231Z,100952.03
2022-12-25T15:00:29.297Z,100946.16
2022-12-25T15:03:24.512Z,100941.06
2022-12-25T15:06:22.484Z,100930.69
2022-12-25T15:09:16.102Z,100929.69
2022-12-25T15:12:02.053Z,100923.59
2022-12-25T15:14:47.567Z,100904.75
2022-12-25T15:17:35.939Z,100908.88
2022-12-25T15:20:28.898Z,100912.19
2022-12-25T15:23:20.354Z,100905.56
2022-12-25T15:26:05.979Z,100908.09
2022-12-25T15:28:55.185Z,100906.34
2022-12-25T15:31:41.076Z,100908.09
2022-12-25T15:34:28.054Z,100893.91
2022-12-25T15:37:14.151Z,100899.44
2022-12-25T15:39:59.769Z,100882.13
2022-12-25T15:42:47.890Z,100888.22
2022-12-25T15:45:33.499Z,100876.06
2022-12-25T15:48:18.992Z,100880.44
2022-12-25T15:51:04.369Z,100871.00
2022-12-25T15:53:49.650Z,100857.56
2022-12-25T15:56:42.138Z,100877.03
2022-12-25T15:59:27.553Z,100875.25
2022-12-25T16:02:18.832Z,100871.63
2022-12-25T16:05:10.138Z,100858.47
2022-12-25T16:07:56.197Z,100870.84
2022-12-25T16:10:41.818Z,100864.59
2022-12-25T16:13:27.433Z,100859.25
2022-12-25T16:16:13.204Z,100852.16
2022-12-25T16:18:58.564Z,100860.06
2022-12-25T16:21:46.021Z,100855.78
2022-12-25T16:24:31.517Z,100843.53
2022-12-25T16:27:17.072Z,100823.88
2022-12-25T16:30:03.315Z,100828.81
2022-12-25T16:32:49.888Z,100827.28
2022-12-25T16:35:35.348Z,100821.44
2022-12-25T16:38:20.668Z,100816.28
2022-12-25T16:41:06.340Z,100813.03
2022-12-25T16:43:51.593Z,100810.34
2022-12-25T16:46:39.572Z,100808.59
2022-12-25T16:49:25.337Z,100810.72
2022-12-25T16:52:11.394Z,100788.13
2022-12-25T16:54:57.824Z,100787.31
2022-12-25T16:57:43.430Z,100784.72
2022-12-25T17:00:29.003Z,100785.41
2022-12-25T17:03:14.433Z,100780.00
2022-12-25T17:05:59.971Z,100782.59
2022-12-25T17:08:45.973Z,100771.34
2022-12-25T17:11:32.100Z,100771.34
2022-12-25T17:14:17.656Z,100750.41
2022-12-25T17:17:03.548Z,100756.44
2022-12-25T17:19:49.164Z,100752.16
2022-12-25T17:22:34.522Z,100746.00
2022-12-25T17:25:19.774Z,100730.41
2022-12-25T17:28:05.276Z,100724.03
2022-12-25T17:30:50.836Z,100713.06
2022-12-25T17:33:38.382Z,100708.81
2022-12-25T17:36:23.902Z,100704.97
2022-12-25T17:39:10.270Z,100716.75
2022-12-25T17:41:55.907Z,100713.06
2022-12-25T17:44:41.482Z,100704.38
2022-12-25T17:47:27.055Z,100701.69
2022-12-25T17:50:12.725Z,100696.31
2022-12-25T17:52:58.301Z,100690.38
2022-12-25T17:55:44.305Z,100683.63
2022-12-25T17:58:30.007Z,100687.03
2022-12-25T18:01:16.785Z,100684.47
2022-12-25T18:04:03.031Z,100679.44
2022-12-25T18:06:50.086Z,100687.63
2022-12-25T18:09:36.259Z,100686.03
2022-12-25T18:12:21.648Z,100687.53
2022-12-25T18:15:07.793Z,100673.53
2022-12-25T18:17:53.299Z,100675.81
2022-12-25T18:20:41.177Z,100672.50
2022-12-25T18:23:26.768Z,100653.25
2022-12-25T18:26:12.378Z,100636.22
2022-12-25T18:28:58.219Z,100624.03
2022-12-25T18:31:43.872Z,100623.31
2022-12-25T18:34:29.271Z,100638.66
2022-12-25T18:37:15.097Z,100628.47
2022-12-25T18:40:00.928Z,100625.06
2022-12-25T18:42:46.537Z,100616.09
2022-12-25T18:45:32.369Z,100611.22
2022-12-25T18:48:17.847Z,100618.09
2022-12-25T18:51:08.681Z,100619.53
2022-12-25T18:53:54.839Z,100612.75
2022-12-25T18:56:40.639Z,100596.34
2022-12-25T18:59:26.070Z,100605.84
2022-12-25T19:02:11.937Z,100608.28
2022-12-25T19:04:57.846Z,100583.53
2022-12-25T19:07:43.601Z,100586.09
2022-12-25T19:10:29.006Z,100582.09
2022-12-25T19:13:14.528Z,100579.91
2022-12-25T19:15:59.997Z,100564.97
2022-12-25T19:18:46.168Z,100569.16
2022-12-25T19:21:31.868Z,100545.97
2022-12-25T19:24:17.580Z,100560.59
2022-12-25T19:27:04.208Z,100554.47
2022-12-25T19:29:49.536Z,100547.44
2022-12-25T19:32:34.853Z,100548.41
2022-12-25T19:35:20.379Z,100548.94
2022-12-25T19:38:05.688Z,100551.66
2022-12-25T19:41:00.560Z,100552.34
2022-12-25T19:43:47.822Z,100534.16
2022-12-25T19:46:36.253Z,100530.84
2022-12-25T19:49:21.489Z,100527.09
2022-12-25T19:52:07.084Z,100529.09
2022-12-25T19:54:52.934Z,100525.94
2022-12-25T19:57:39.976Z,100513.25
2022-12-25T20:00:25.531Z,100520.41
2022-12-25T20:03:12.482Z,100503.91
2022-12-25T20:05:58.213Z,100514.47
2022-12-25T20:08:44.282Z,100511.56
2022-12-25T20:11:31.729Z,100523.81
2022-12-25T20:14:17.854Z,100518.50
2022-12-25T20:17:03.469Z,100520.09
2022-12-25T20:19:48.844Z,100520.31
2022-12-25T20:22:34.352Z,100507.00
2022-12-25T20:25:19.663Z,100509.09
2022-12-25T20:28:05.241Z,100506.94
2022-12-25T20:30:50.473Z,100483.41
2022-12-25T20:33:36.312Z,100495.53
2022-12-25T20:36:21.965Z,100487.56
2022-12-25T20:39:09.840Z,100495.03
2022-12-25T20:41:55.663Z,100479.34
2022-12-25T20:44:40.980Z,100487.31
2022-12-25T20:47:26.527Z,100483.78
2022-12-25T20:50:12.225Z,100489.50
2022-12-25T20:52:57.867Z,100489.97
2022-12-25T20:55:48.189Z,100494.81
2022-12-25T20:58:33.548Z,100482.13
2022-12-25T21:01:18.861Z,100483.25
2022-12-25T21:04:04.828Z,100501.44
2022-12-25T21:06:50.330Z,100494.56
2022-12-25T21:09:36.160Z,100504.84
2022-12-25T21:12:21.593Z,100510.97
2022-12-25T21:15:13.234Z,100497.72
2022-12-25T21:18:02.507Z,100488.06
2022-12-25T21:20:50.768Z,100489.19
2022-12-25T21:23:38.516Z,100497.72
2022-12-25T21:26:26.429Z,100498.44
2022-12-25T21:29:11.680Z,100477.94
2022-12-25T21:32:16.006Z,100464.81
2022-12-25T21:35:01.383Z,100481.59
2022-12-25T21:37:47.016Z,100475.91
2022-12-25T21:40:36.828Z,100487.59
2022-12-25T21:43:22.289Z,100488.13
2022-12-25T21:46:13.896Z,100500.22
2022-12-25T21:49:00.127Z,100506.75
2022-12-25T21:52:04.038Z,100506.53
2022-12-25T21:54:52.381Z,100501.13
2022-12-25T21:57:38.243Z,100497.66
2022-12-25T22:00:23.593Z,100500.00
2022-12-25T22:03:09.347Z,100504.84
2022-12-25T22:06:21.180Z,100502.25
2022-12-25T22:09:08.959Z,100497.88
2022-12-25T22:12:13.233Z,100486.41
2022-12-25T22:15:02.913Z,100484.66
2022-12-25T22:18:07.144Z,100492.88
2022-12-25T22:20:52.751Z,100490.31
2022-12-25T22:23:38.340Z,100489.47
2022-12-25T22:26:23.597Z,100499.16
2022-12-25T22:29:09.198Z,100499.16
2022-12-25T22:31:55.029Z,100487.34
2022-12-25T22:34:40.892Z,100481.34
2022-12-25T22:37:26.673Z,100485.63
2022-12-25T22:40:15.424Z,100486.69
2022-12-25T22:43:00.809Z,100477.53
2022-12-25T22:45:46.188Z,100469.50
2022-12-25T22:48:31.722Z,100443.63
2022-12-25T22:51:17.141Z,100461.47
2022-12-25T22:54:03.904Z,100464.47
2022-12-25T22:56:51.567Z,100478.81
2022-12-25T22:59:36.945Z,100481.16
2022-12-25T23:02:22.684Z,100487.53
2022-12-25T23:05:08.168Z,100488.75
2022-12-25T23:07:53.702Z,100506.50
2022-12-25T23:10:39.228Z,100507.31
2022-12-25T23:13:43.239Z,100503.00
2022-12-25T23:16:29.196Z,100506.78
2022-12-25T23:19:33.258Z,100494.50
2022-12-25T23:22:37.247Z,100504.69
2022-12-25T23:25:41.151Z,100498.72
2022-12-25T23:28:45.048Z,100499.94
2022-12-25T23:31:34.411Z,100510.91
2022-12-25T23:34:20.821Z,100502.34
2022-12-25T23:37:06.897Z,100488.56
2022-12-25T23:39:52.201Z,100505.78
2022-12-25T23:42:37.496Z,100515.44
2022-12-25T23:45:22.782Z,100499.88
2022-12-25T23:48:08.328Z,100508.66
2022-12-25T23:50:53.822Z,100496.69
2022-12-25T23:53:39.773Z,100509.00
2022-12-25T23:56:25.228Z,100499.66
2022-12-25T23:59:11.472Z,100504.81
